createdAt,value
2023-03-29T00:01:06.553Z,101588.94
2023-03-29T00:03:33.981Z,101581.69
2023-03-29T00:06:02.964Z,101585.44
2023-03-29T00:08:29.722Z,101584.69
2023-03-29T00:10:56.791Z,101577.56
2023-03-29T00:13:23.138Z,101578.28
2023-03-29T00:15:49.470Z,101583.41
2023-03-29T00:18:15.840Z,101569.03
2023-03-29T00:20:42.169Z,101571.91
2023-03-29T00:23:08.537Z,101555.03
2023-03-29T00:25:34.863Z,101557.41
2023-03-29T00:28:01.200Z,101550.94
2023-03-29T00:30:27.521Z,101563.16
2023-03-29T00:32:53.905Z,101560.69
2023-03-29T00:35:20.325Z,101556.94
2023-03-29T00:37:51.032Z,101554.72
2023-03-29T00:40:17.496Z,101548.31
2023-03-29T00:42:44.289Z,101556.19
2023-03-29T00:45:18.973Z,101542.56
2023-03-29T00:47:46.493Z,101549.94
2023-03-29T00:50:22.391Z,101542.69
2023-03-29T00:52:50.751Z,101536.94
2023-03-29T00:55:17.852Z,101541.31
2023-03-29T00:57:46.461Z,101532.81
2023-03-29T01:00:14.534Z,101525.66
2023-03-29T01:02:40.982Z,101521.44
2023-03-29T01:05:08.505Z,101530.06
2023-03-29T01:07:40.956Z,101514.16
2023-03-29T01:10:11.996Z,101524.94
2023-03-29T01:12:40.421Z,101503.94
2023-03-29T01:15:09.106Z,101499.44
2023-03-29T01:17:35.552Z,101502.22
2023-03-29T01:20:10.718Z,101487.94
2023-03-29T01:22:45.486Z,101490.19
2023-03-29T01:25:26.677Z,101495.19
2023-03-29T01:28:11.526Z,101478.69
2023-03-29T01:30:40.352Z,101479.44
2023-03-29T01:33:10.959Z,101475.19
2023-03-29T01:35:42.482Z,101475.94
2023-03-29T01:38:13.438Z,101471.03
2023-03-29T01:40:39.836Z,101468.91
2023-03-29T01:43:17.485Z,101455.91
2023-03-29T01:45:46.950Z,101456.41
2023-03-29T01:48:25.665Z,101457.81
2023-03-29T01:50:54.285Z,101455.06
2023-03-29T01:53:24.205Z,101455.91
2023-03-29T01:55:51.908Z,101442.16
2023-03-29T01:58:18.255Z,101445.03
2023-03-29T02:00:45.635Z,101439.16
2023-03-29T02:03:14.966Z,101440.44
2023-03-29T02:05:42.386Z,101434.47
2023-03-29T02:08:09.095Z,101440.22
2023-03-29T02:10:35.599Z,101431.09
2023-03-29T02:13:03.029Z,101436.19
2023-03-29T02:15:32.288Z,101424.78
2023-03-29T02:17:58.767Z,101424.91
2023-03-29T02:20:26.548Z,101419.41
2023-03-29T02:23:08.217Z,101403.63
2023-03-29T02:25:35.413Z,101402.25
2023-03-29T02:28:01.792Z,101405.88
2023-03-29T02:30:46.332Z,101396.50
2023-03-29T02:33:24.120Z,101394.25
2023-03-29T02:35:59.039Z,101397.88
2023-03-29T02:38:25.621Z,101406.41
2023-03-29T02:40:52.866Z,101394.69
2023-03-29T02:43:19.219Z,101393.16
2023-03-29T02:45:45.556Z,101384.53
2023-03-29T02:48:13.418Z,101387.41
2023-03-29T02:50:39.868Z,101383.91
2023-03-29T02:53:16.959Z,101380.41
2023-03-29T02:55:46.804Z,101370.41
2023-03-29T02:58:14.088Z,101361.78
2023-03-29T03:00:42.193Z,101357.53
2023-03-29T03:03:09.697Z,101364.03
2023-03-29T03:05:36.157Z,101360.50
2023-03-29T03:08:02.788Z,101359.13
2023-03-29T03:10:29.220Z,101359.88
2023-03-29T03:12:57.095Z,101361.38
2023-03-29T03:15:24.157Z,101355.63
2023-03-29T03:17:50.561Z,101347.00
2023-03-29T03:20:16.927Z,101349.09
2023-03-29T03:22:44.048Z,101343.34
2023-03-29T03:25:11.156Z,101349.09
2023-03-29T03:27:37.998Z,101336.13
2023-03-29T03:30:05.357Z,101337.59
2023-03-29T03:33:03.715Z,101329.31
2023-03-29T03:36:06.490Z,101334.41
2023-03-29T03:38:35.105Z,101331.66
2023-03-29T03:41:01.711Z,101325.25
2023-03-29T03:43:31.982Z,101324.63
2023-03-29T03:45:58.397Z,101324.75
2023-03-29T03:48:25.445Z,101327.63
2023-03-29T03:51:20.819Z,101332.63
2023-03-29T03:53:47.812Z,101333.38
2023-03-29T03:56:14.189Z,101319.00
2023-03-29T03:59:09.271Z,101326.88
2023-03-29T04:01:54.268Z,101314.59
2023-03-29T04:04:23.401Z,101307.50
2023-03-29T04:07:08.305Z,101314.84
2023-03-29T04:09:53.124Z,101320.06
2023-03-29T04:12:29.837Z,101313.56
2023-03-29T04:14:56.686Z,101309.19
2023-03-29T04:17:24.796Z,101315.06
2023-03-29T04:20:20.263Z,101316.44
2023-03-29T04:22:46.847Z,101315.78
2023-03-29T04:25:13.281Z,101310.78
2023-03-29T04:27:49.014Z,101304.28
2023-03-29T04:30:37.898Z,101310.03
2023-03-29T04:33:10.284Z,101312.28
2023-03-29T04:35:39.217Z,101303.66
2023-03-29T04:38:10.068Z,101308.78
2023-03-29T04:40:36.510Z,101306.66
2023-03-29T04:43:12.414Z,101299.50
2023-03-29T04:45:46.174Z,101301.00
2023-03-29T04:48:32.238Z,101298.75
2023-03-29T04:50:58.685Z,101299.50
2023-03-29T04:53:25.098Z,101292.28
2023-03-29T04:55:52.628Z,101290.75
2023-03-29T04:58:32.392Z,101285.78
2023-03-29T05:00:59.663Z,101281.41
2023-03-29T05:03:35.573Z,101281.41
2023-03-29T05:06:13.469Z,101279.25
2023-03-29T05:08:40.271Z,101280.53
2023-03-29T05:11:13.560Z,101279.06
2023-03-29T05:13:42.565Z,101279.81
2023-03-29T05:16:11.093Z,101274.78
2023-03-29T05:18:37.852Z,101267.66
2023-03-29T05:21:04.502Z,101270.00
2023-03-29T05:23:32.596Z,101275.66
2023-03-29T05:26:16.899Z,101265.22
2023-03-29T05:28:48.888Z,101271.47
2023-03-29T05:31:17.254Z,101270.75
2023-03-29T05:33:45.170Z,101278.75
2023-03-29T05:36:13.463Z,101267.97
2023-03-29T05:38:46.916Z,101273.00
2023-03-29T05:41:13.813Z,101260.50
2023-03-29T05:43:58.631Z,101270.06
2023-03-29T05:46:25.859Z,101270.72
2023-03-29T05:48:55.795Z,101267.22
2023-03-29T05:51:35.601Z,101270.75
2023-03-29T05:54:02.042Z,101264.16
2023-03-29T05:56:28.507Z,101260.31
2023-03-29T05:58:56.874Z,101271.81
2023-03-29T06:01:24.494Z,101264.53
2023-03-29T06:04:01.688Z,101255.22
2023-03-29T06:06:36.800Z,101258.13
2023-03-29T06:09:03.807Z,101255.78
2023-03-29T06:11:34.869Z,101256.50
2023-03-29T06:14:20.420Z,101263.38
2023-03-29T06:16:54.976Z,101259.69
2023-03-29T06:19:21.562Z,101257.84
2023-03-29T06:21:48.415Z,101254.69
2023-03-29T06:24:20.622Z,101250.13
2023-03-29T06:26:52.393Z,101252.06
2023-03-29T06:29:18.898Z,101250.41
2023-03-29T06:31:46.620Z,101247.31
2023-03-29T06:34:31.074Z,101253.06
2023-03-29T06:37:16.960Z,101243.25
2023-03-29T06:39:43.657Z,101249.13
2023-03-29T06:42:22.522Z,101247.53
2023-03-29T06:45:13.135Z,101244.94
2023-03-29T06:47:39.786Z,101251.78
2023-03-29T06:50:06.608Z,101245.94
2023-03-29T06:52:48.092Z,101247.19
2023-03-29T06:55:15.867Z,101241.22
2023-03-29T06:57:42.558Z,101246.03
2023-03-29T07:00:18.112Z,101258.81
2023-03-29T07:03:03.859Z,101255.81
2023-03-29T07:05:30.242Z,101256.06
2023-03-29T07:07:57.371Z,101245.41
2023-03-29T07:10:39.355Z,101252.22
2023-03-29T07:13:32.900Z,101247.44
2023-03-29T07:16:02.203Z,101249.53
2023-03-29T07:18:44.698Z,101254.34
2023-03-29T07:21:18.799Z,101253.06
2023-03-29T07:23:45.141Z,101244.56
2023-03-29T07:26:11.968Z,101255.84
2023-03-29T07:28:39.303Z,101240.53
2023-03-29T07:31:10.894Z,101242.66
2023-03-29T07:33:45.329Z,101252.78
2023-03-29T07:36:13.006Z,101250.31
2023-03-29T07:38:40.128Z,101248.78
2023-03-29T07:41:12.253Z,101243.06
2023-03-29T07:43:42.286Z,101234.75
2023-03-29T07:46:11.623Z,101236.81
2023-03-29T07:48:38.911Z,101237.94
2023-03-29T07:51:07.832Z,101234.47
2023-03-29T07:53:54.473Z,101241.22
2023-03-29T07:56:39.446Z,101240.47
2023-03-29T07:59:22.422Z,101232.38
2023-03-29T08:01:58.305Z,101233.31
2023-03-29T08:04:29.254Z,101225.59
2023-03-29T08:07:16.974Z,101231.97
2023-03-29T08:09:53.617Z,101241.13
2023-03-29T08:12:27.068Z,101234.94
2023-03-29T08:14:55.861Z,101233.53
2023-03-29T08:17:27.253Z,101220.34
2023-03-29T08:19:53.624Z,101225.09
2023-03-29T08:22:22.483Z,101215.47
2023-03-29T08:25:05.825Z,101208.81
2023-03-29T08:27:37.605Z,101210.00
2023-03-29T08:30:05.127Z,101212.34
2023-03-29T08:32:33.888Z,101203.63
2023-03-29T08:35:03.835Z,101206.59
2023-03-29T08:37:36.806Z,101203.09
2023-03-29T08:40:03.677Z,101195.09
2023-03-29T08:43:17.684Z,101190.63
2023-03-29T08:46:03.959Z,101184.78
2023-03-29T08:48:34.049Z,101190.63
2023-03-29T08:51:05.634Z,101184.66
2023-03-29T08:53:38.078Z,101183.94
2023-03-29T08:56:13.699Z,101191.94
2023-03-29T08:58:58.610Z,101199.16
2023-03-29T09:01:31.674Z,101184.03
2023-03-29T09:04:03.657Z,101186.91
2023-03-29T09:06:45.708Z,101176.25
2023-03-29T09:09:18.537Z,101178.56
2023-03-29T09:12:09.528Z,101174.75
2023-03-29T09:14:45.336Z,101180.09
2023-03-29T09:17:21.476Z,101181.69
2023-03-29T09:19:54.041Z,101183.28
2023-03-29T09:22:42.658Z,101178.66
2023-03-29T09:25:25.857Z,101177.91
2023-03-29T09:27:52.798Z,101183.19
2023-03-29T09:30:42.934Z,101178.41
2023-03-29T09:33:12.680Z,101171.19
2023-03-29T09:36:17.325Z,101174.84
2023-03-29T09:38:47.852Z,101176.25
2023-03-29T09:41:29.978Z,101170.81
2023-03-29T09:43:56.918Z,101164.59
2023-03-29T09:46:28.986Z,101155.50
2023-03-29T09:56:49.886Z,101148.34
2023-03-29T09:59:19.501Z,101142.00
2023-03-29T10:01:46.014Z,101149.34
2023-03-29T10:04:14.073Z,101140.97
2023-03-29T10:06:44.897Z,101147.94
2023-03-29T10:09:14.581Z,101139.94
2023-03-29T10:11:46.671Z,101140.41
2023-03-29T10:14:14.355Z,101131.00
2023-03-29T10:16:41.317Z,101132.69
2023-03-29T10:19:21.207Z,101130.25
2023-03-29T10:21:48.929Z,101128.16
2023-03-29T10:24:18.263Z,101114.56
2023-03-29T10:26:44.652Z,101106.09
2023-03-29T10:29:10.983Z,101118.66
2023-03-29T10:31:41.570Z,101116.91
2023-03-29T10:34:08.922Z,101121.56
2023-03-29T10:36:35.448Z,101114.66
2023-03-29T10:39:05.780Z,101111.31
2023-03-29T10:41:34.009Z,101109.66
2023-03-29T10:44:00.314Z,101104.81
2023-03-29T10:46:33.627Z,101105.75
2023-03-29T10:49:02.490Z,101097.00
2023-03-29T10:51:30.119Z,101095.16
2023-03-29T10:53:57.150Z,101095.84
2023-03-29T10:56:29.705Z,101096.06
2023-03-29T10:59:00.145Z,101087.41
2023-03-29T11:01:27.381Z,101080.19
2023-03-29T11:04:16.552Z,101086.59
2023-03-29T11:06:53.325Z,101088.47
2023-03-29T11:09:45.721Z,101086.78
2023-03-29T11:12:30.808Z,101084.06
2023-03-29T11:15:07.834Z,101075.78
2023-03-29T11:17:38.273Z,101091.50
2023-03-29T11:20:12.877Z,101088.44
2023-03-29T11:22:54.298Z,101083.28
2023-03-29T11:25:23.231Z,101077.56
2023-03-29T11:27:55.138Z,101074.31
2023-03-29T11:30:25.782Z,101068.19
2023-03-29T11:32:59.898Z,101073.00
2023-03-29T11:35:34.267Z,101067.81
2023-03-29T11:38:19.010Z,101063.16
2023-03-29T11:41:02.771Z,101063.94
2023-03-29T11:43:29.487Z,101067.56
2023-03-29T11:45:57.686Z,101063.94
2023-03-29T11:48:25.409Z,101062.63
2023-03-29T11:50:57.914Z,101073.59
2023-03-29T11:53:25.541Z,101071.88
2023-03-29T11:55:52.221Z,101063.94
2023-03-29T11:58:22.370Z,101062.81
2023-03-29T12:00:56.237Z,101070.63
2023-03-29T12:03:40.396Z,101077.47
2023-03-29T12:06:17.713Z,101063.97
2023-03-29T12:08:52.403Z,101072.44
2023-03-29T12:11:21.212Z,101064.16
2023-03-29T12:13:48.985Z,101065.38
2023-03-29T12:16:17.311Z,101055.09
2023-03-29T12:18:46.963Z,101060.03
2023-03-29T12:21:14.149Z,101052.41
2023-03-29T12:23:41.287Z,101055.38
2023-03-29T12:26:12.170Z,101053.88
2023-03-29T12:28:57.580Z,101055.38
2023-03-29T12:31:42.716Z,101042.63
2023-03-29T12:34:14.260Z,101038.16
2023-03-29T12:37:19.143Z,101043.84
2023-03-29T12:39:45.514Z,101029.78
2023-03-29T12:42:44.365Z,101025.16
2023-03-29T12:45:52.052Z,101028.03
2023-03-29T12:48:19.173Z,101026.72
2023-03-29T12:50:46.838Z,101030.63
2023-03-29T12:53:23.258Z,101013.44
2023-03-29T12:56:08.422Z,101000.34
2023-03-29T12:58:42.598Z,100996.06
2023-03-29T13:01:10.514Z,100991.97
2023-03-29T13:03:39.991Z,100993.38
2023-03-29T13:06:09.366Z,100999.81
2023-03-29T13:08:36.715Z,100999.03
2023-03-29T13:11:03.624Z,100998.94
2023-03-29T13:13:31.069Z,100997.66
2023-03-29T13:16:07.815Z,101008.06
2023-03-29T13:19:01.271Z,101009.84
2023-03-29T13:21:46.530Z,100999.34
2023-03-29T13:24:23.350Z,101003.72
2023-03-29T13:26:49.640Z,101006.03
2023-03-29T13:29:22.375Z,101010.03
2023-03-29T13:31:56.374Z,101008.56
2023-03-29T13:34:41.878Z,101005.75
2023-03-29T13:37:27.908Z,100989.97
2023-03-29T13:39:54.444Z,100991.91
2023-03-29T13:42:32.831Z,100991.81
2023-03-29T13:45:18.435Z,100989.13
2023-03-29T13:47:54.909Z,100986.53
2023-03-29T13:50:36.648Z,100975.84
2023-03-29T13:53:18.708Z,100980.00
2023-03-29T13:55:48.308Z,100984.16
2023-03-29T13:58:17.325Z,100986.56
2023-03-29T14:00:50.997Z,100970.25
2023-03-29T14:03:17.692Z,100977.47
2023-03-29T14:05:44.566Z,100982.97
2023-03-29T14:08:20.900Z,100984.00
2023-03-29T14:10:47.238Z,100976.00
2023-03-29T14:13:13.911Z,100986.06
2023-03-29T14:15:48.454Z,100978.25
2023-03-29T14:18:15.655Z,100978.97
2023-03-29T14:20:53.458Z,100981.78
2023-03-29T14:23:20.298Z,100978.78
2023-03-29T14:25:46.692Z,100969.50
2023-03-29T14:28:20.367Z,100968.78
2023-03-29T14:30:47.171Z,100973.72
2023-03-29T14:33:13.932Z,100965.81
2023-03-29T14:35:40.526Z,100962.94
2023-03-29T14:38:06.925Z,100967.22
2023-03-29T14:40:33.906Z,100970.72
2023-03-29T14:43:01.570Z,100971.38
2023-03-29T14:45:27.896Z,100968.38
2023-03-29T14:47:54.318Z,100970.63
2023-03-29T14:50:26.099Z,100970.47
2023-03-29T14:52:52.674Z,100968.97
2023-03-29T14:55:23.481Z,100959.31
2023-03-29T14:57:50.003Z,100962.88
2023-03-29T15:00:19.775Z,100964.75
2023-03-29T15:02:59.293Z,100963.94
2023-03-29T15:05:29.523Z,100962.16
2023-03-29T15:07:56.353Z,100961.06
2023-03-29T15:10:22.765Z,100954.38
2023-03-29T15:12:49.470Z,100950.66
2023-03-29T15:15:16.150Z,100945.28
2023-03-29T15:17:50.287Z,100939.03
2023-03-29T15:20:21.396Z,100944.19
2023-03-29T15:23:01.362Z,100936.16
2023-03-29T15:25:28.318Z,100920.63
2023-03-29T15:27:55.454Z,100914.25
2023-03-29T15:30:28.364Z,100912.28
2023-03-29T15:32:54.879Z,100910.84
2023-03-29T15:35:22.625Z,100906.22
2023-03-29T15:37:49.243Z,100909.13
2023-03-29T15:40:16.415Z,100899.31
2023-03-29T15:42:42.898Z,100896.56
2023-03-29T15:45:15.700Z,100892.03
2023-03-29T15:47:42.240Z,100892.63
2023-03-29T15:50:08.781Z,100884.44
2023-03-29T15:52:35.311Z,100884.63
2023-03-29T15:55:02.440Z,100876.88
2023-03-29T15:57:28.849Z,100876.53
2023-03-29T15:59:55.273Z,100878.75
2023-03-29T16:02:22.995Z,100882.47
2023-03-29T16:04:49.390Z,100877.84
2023-03-29T16:07:16.400Z,100871.28
2023-03-29T16:09:42.915Z,100871.53
2023-03-29T16:12:09.633Z,100882.47
2023-03-29T16:14:36.023Z,100877.28
2023-03-29T16:17:03.001Z,100877.34
2023-03-29T16:19:29.779Z,100878.00
2023-03-29T16:21:56.301Z,100872.59
2023-03-29T16:24:32.000Z,100873.50
2023-03-29T16:26:58.444Z,100880.50
2023-03-29T16:29:24.861Z,100877.84
2023-03-29T16:31:51.403Z,100882.69
2023-03-29T16:34:19.086Z,100877.94
2023-03-29T16:36:49.064Z,100890.50
2023-03-29T16:39:15.952Z,100891.53
2023-03-29T16:41:42.305Z,100892.66
2023-03-29T16:44:11.035Z,100891.34
2023-03-29T16:46:37.589Z,100884.50
2023-03-29T16:49:07.745Z,100881.72
2023-03-29T16:51:34.089Z,100888.22
2023-03-29T16:54:00.677Z,100881.50
2023-03-29T16:56:28.327Z,100878.00
2023-03-29T16:58:54.753Z,100874.19
2023-03-29T17:01:22.683Z,100866.47
2023-03-29T17:03:49.100Z,100873.06
2023-03-29T17:06:15.629Z,100869.16
2023-03-29T17:08:42.419Z,100880.09
2023-03-29T17:11:08.832Z,100879.44
2023-03-29T17:13:35.181Z,100871.63
2023-03-29T17:16:01.874Z,100868.03
2023-03-29T17:18:28.525Z,100862.91
2023-03-29T17:20:57.674Z,100860.78
2023-03-29T17:23:24.155Z,100865.88
2023-03-29T17:25:50.584Z,100869.44
2023-03-29T17:28:16.902Z,100868.66
2023-03-29T17:30:46.311Z,100858.47
2023-03-29T17:33:13.501Z,100864.22
2023-03-29T17:35:46.253Z,100863.56
2023-03-29T17:38:12.624Z,100865.25
2023-03-29T17:40:39.231Z,100866.13
2023-03-29T17:43:05.578Z,100867.03
2023-03-29T17:45:32.218Z,100861.28
2023-03-29T17:47:58.678Z,100863.16
2023-03-29T17:50:25.046Z,100857.22
2023-03-29T17:52:51.378Z,100856.38
2023-03-29T17:55:17.914Z,100852.53
2023-03-29T17:57:44.263Z,100868.06
2023-03-29T18:00:12.093Z,100856.09
2023-03-29T18:02:38.684Z,100855.44
2023-03-29T18:05:05.732Z,100862.94
2023-03-29T18:07:32.153Z,100857.56
2023-03-29T18:09:58.493Z,100853.88
2023-03-29T18:12:25.468Z,100849.69
2023-03-29T18:14:52.020Z,100861.47
2023-03-29T18:17:18.390Z,100862.22
2023-03-29T18:19:44.723Z,100858.59
2023-03-29T18:22:12.248Z,100863.81
2023-03-29T18:24:38.574Z,100861.28
2023-03-29T18:27:05.452Z,100863.44
2023-03-29T18:29:31.799Z,100862.94
2023-03-29T18:32:02.708Z,100861.84
2023-03-29T18:34:29.683Z,100858.59
2023-03-29T18:36:56.386Z,100852.56
2023-03-29T18:39:22.724Z,100851.19
2023-03-29T18:41:49.053Z,100861.03
2023-03-29T18:44:15.388Z,100859.25
2023-03-29T18:46:41.790Z,100861.50
2023-03-29T18:49:08.195Z,100859.44
2023-03-29T18:51:34.584Z,100858.72
2023-03-29T18:54:01.299Z,100870.94
2023-03-29T18:56:27.898Z,100866.59
2023-03-29T18:58:54.275Z,100868.75
2023-03-29T19:01:20.654Z,100867.97
2023-03-29T19:03:47.847Z,100865.88
2023-03-29T19:06:15.082Z,100858.72
2023-03-29T19:08:41.635Z,100860.19
2023-03-29T19:11:08.673Z,100859.44
2023-03-29T19:13:35.102Z,100850.91
2023-03-29T19:16:01.560Z,100848.03
2023-03-29T19:18:28.122Z,100851.00
2023-03-29T19:20:54.464Z,100839.50
2023-03-29T19:23:21.279Z,100842.38
2023-03-29T19:25:51.340Z,100841.06
2023-03-29T19:28:17.678Z,100831.59
2023-03-29T19:30:44.184Z,100838.09
2023-03-29T19:33:10.640Z,100836.63
2023-03-29T19:35:37.009Z,100837.44
2023-03-29T19:38:03.372Z,100838.19
2023-03-29T19:40:29.696Z,100836.63
2023-03-29T19:42:56.028Z,100838.03
2023-03-29T19:45:23.324Z,100840.91
2023-03-29T19:47:55.718Z,100832.91
2023-03-29T19:50:22.635Z,100831.41
2023-03-29T19:52:49.029Z,100827.78
2023-03-29T19:55:15.371Z,100824.19
2023-03-29T19:57:42.459Z,100824.91
2023-03-29T20:00:10.487Z,100820.56
2023-03-29T20:02:39.651Z,100815.47
2023-03-29T20:05:06.652Z,100816.09
2023-03-29T20:07:32.975Z,100808.84
2023-03-29T20:09:59.301Z,100810.34
2023-03-29T20:12:25.848Z,100814.72
2023-03-29T20:14:52.174Z,100817.69
2023-03-29T20:17:18.496Z,100813.22
2023-03-29T20:19:44.829Z,100814.50
2023-03-29T20:22:11.447Z,100808.75
2023-03-29T20:24:37.760Z,100813.03
2023-03-29T20:27:04.408Z,100805.78
2023-03-29T20:29:31.129Z,100802.91
2023-03-29T20:31:58.918Z,100799.28
2023-03-29T20:34:25.514Z,100794.19
2023-03-29T20:36:55.128Z,100796.31
2023-03-29T20:39:25.563Z,100802.47
2023-03-29T20:41:52.206Z,100793.63
2023-03-29T20:44:18.529Z,100788.53
2023-03-29T20:47:02.114Z,100781.28
2023-03-29T20:49:37.183Z,100784.09
2023-03-29T20:52:07.936Z,100772.00
2023-03-29T20:54:35.054Z,100771.06
2023-03-29T20:57:01.440Z,100769.59
2023-03-29T20:59:28.519Z,100768.88
2023-03-29T21:01:54.893Z,100772.38
2023-03-29T21:04:21.305Z,100765.22
2023-03-29T21:06:49.577Z,100772.38
2023-03-29T21:09:19.246Z,100768.78
2023-03-29T21:11:45.610Z,100766.53
2023-03-29T21:14:11.959Z,100768.78
2023-03-29T21:16:41.604Z,100755.03
2023-03-29T21:19:08.692Z,100755.03
2023-03-29T21:21:35.816Z,100756.44
2023-03-29T21:24:02.389Z,100750.69
2023-03-29T21:26:28.728Z,100749.19
2023-03-29T21:28:55.236Z,100739.19
2023-03-29T21:31:21.577Z,100726.19
2023-03-29T21:33:47.932Z,100724.72
2023-03-29T21:36:14.433Z,100721.84
2023-03-29T21:38:40.834Z,100713.22
2023-03-29T21:41:10.622Z,100712.47
2023-03-29T21:43:36.939Z,100705.97
2023-03-29T21:46:03.272Z,100708.09
2023-03-29T21:48:29.602Z,100711.72
2023-03-29T21:50:56.076Z,100701.63
2023-03-29T21:53:22.413Z,100701.53
2023-03-29T21:55:48.979Z,100703.00
2023-03-29T21:58:15.307Z,100700.78
2023-03-29T22:00:41.689Z,100696.91
2023-03-29T22:03:08.112Z,100708.00
2023-03-29T22:05:34.629Z,100704.41
2023-03-29T22:08:00.943Z,100700.06
2023-03-29T22:10:27.529Z,100698.56
2023-03-29T22:12:53.873Z,100701.44
2023-03-29T22:15:22.950Z,100694.22
2023-03-29T22:17:50.313Z,100702.84
2023-03-29T22:20:18.398Z,100692.72
2023-03-29T22:22:45.289Z,100695.59
2023-03-29T22:25:11.639Z,100694.13
2023-03-29T22:27:37.977Z,100699.88
2023-03-29T22:30:04.458Z,100694.03
2023-03-29T22:32:30.914Z,100685.41
2023-03-29T22:34:57.269Z,100679.66
2023-03-29T22:37:23.574Z,100679.66
2023-03-29T22:39:49.994Z,100679.66
2023-03-29T22:42:16.599Z,100678.16
2023-03-29T22:44:42.996Z,100681.03
2023-03-29T22:47:09.317Z,100665.09
2023-03-29T22:49:35.787Z,100676.69
2023-03-29T22:52:02.366Z,100662.94
2023-03-29T22:54:28.715Z,100657.97
2023-03-29T22:56:55.074Z,100657.97
2023-03-29T22:59:21.473Z,100662.94
2023-03-29T23:01:48.349Z,100656.47
2023-03-29T23:04:14.783Z,100656.47
2023-03-29T23:06:41.496Z,100653.59
2023-03-29T23:09:07.870Z,100647.75
2023-03-29T23:11:34.193Z,100643.50
2023-03-29T23:14:03.916Z,100639.13
2023-03-29T23:16:30.803Z,100639.03
2023-03-29T23:18:58.268Z,100639.94
2023-03-29T23:21:24.856Z,100640.72
2023-03-29T23:23:51.171Z,100639.22
2023-03-29T23:26:17.614Z,100634.09
2023-03-29T23:28:44.751Z,100637.75
2023-03-29T23:31:12.060Z,100630.50
2023-03-29T23:33:41.580Z,100629.03
2023-03-29T23:36:08.932Z,100631.91
2023-03-29T23:38:35.733Z,100627.53
2023-03-29T23:41:02.662Z,100626.78
2023-03-29T23:43:32.653Z,100626.78
2023-03-29T23:45:59.571Z,100621.03
2023-03-29T23:48:25.977Z,100620.31
2023-03-29T23:50:52.339Z,100618.81
2023-03-29T23:53:19.794Z,100624.56
2023-03-29T23:55:47.342Z,100618.09
2023-03-29T23:58:13.975Z,100624.56
